createdAt,value
2022-07-27T00:02:30.829Z,22.44
2022-07-27T00:05:05.868Z,22.45
2022-07-27T00:07:39.142Z,22.42
2022-07-27T00:10:12.813Z,22.41
2022-07-27T00:12:45.972Z,22.40
2022-07-27T00:15:19.120Z,22.40
2022-07-27T00:17:52.108Z,22.36
2022-07-27T00:20:27.182Z,22.33
2022-07-27T00:23:00.917Z,22.31
2022-07-27T00:25:34.223Z,22.30
2022-07-27T00:28:08.043Z,22.30
2022-07-27T00:30:41.839Z,22.31
2022-07-27T00:33:16.946Z,22.32
2022-07-27T00:35:49.825Z,22.32
2022-07-27T00:38:22.814Z,22.30
2022-07-27T00:40:55.944Z,22.25
2022-07-27T00:43:28.946Z,22.20
2022-07-27T00:46:04.722Z,22.15
2022-07-27T00:48:37.368Z,22.11
2022-07-27T00:51:10.744Z,22.07
2022-07-27T00:53:43.951Z,22.05
2022-07-27T00:56:17.307Z,22.03
2022-07-27T00:58:52.079Z,22.05
2022-07-27T01:01:25.331Z,22.04
2022-07-27T01:03:58.811Z,22.04
2022-07-27T01:06:32.209Z,22.02
2022-07-27T01:09:22.940Z,22.00
2022-07-27T01:11:56.129Z,21.96
2022-07-27T01:14:29.303Z,21.92
2022-07-27T01:17:02.320Z,21.87
2022-07-27T01:19:36.154Z,21.87
2022-07-27T01:22:09.605Z,21.85
2022-07-27T01:24:43.367Z,21.85
2022-07-27T01:27:17.126Z,21.85
2022-07-27T01:29:50.596Z,21.82
2022-07-27T01:32:23.608Z,21.77
2022-07-27T01:34:56.969Z,21.75
2022-07-27T01:37:30.143Z,21.72
2022-07-27T01:40:03.220Z,21.72
2022-07-27T01:42:36.587Z,21.72
2022-07-27T01:45:12.801Z,21.68
2022-07-27T01:47:46.150Z,21.66
2022-07-27T01:50:19.362Z,21.65
2022-07-27T01:52:54.073Z,21.67
2022-07-27T01:55:27.220Z,21.69
2022-07-27T01:58:03.543Z,21.76
2022-07-27T02:00:37.405Z,21.82
2022-07-27T02:03:12.598Z,21.92
2022-07-27T02:05:45.794Z,22.05
2022-07-27T02:08:18.869Z,22.20
2022-07-27T02:11:09.845Z,22.28
2022-07-27T02:13:47.249Z,22.39
2022-07-27T02:16:22.015Z,22.38
2022-07-27T02:18:57.297Z,22.41
2022-07-27T02:21:30.679Z,22.43
2022-07-27T02:24:03.871Z,22.42
2022-07-27T02:26:37.244Z,22.42
2022-07-27T02:29:12.454Z,22.44
2022-07-27T02:31:46.661Z,22.46
2022-07-27T02:34:20.036Z,22.46
2022-07-27T02:36:53.223Z,22.46
2022-07-27T02:39:26.539Z,22.18
2022-07-27T02:41:59.549Z,22.40
2022-07-27T02:44:33.109Z,22.46
2022-07-27T02:47:08.053Z,22.70
2022-07-27T02:49:41.220Z,22.96
2022-07-27T02:52:14.341Z,23.08
2022-07-27T02:54:47.261Z,23.12
2022-07-27T02:57:20.950Z,22.97
2022-07-27T02:59:54.150Z,22.81
2022-07-27T03:02:28.954Z,22.74
2022-07-27T03:05:01.946Z,22.74
2022-07-27T03:07:35.771Z,22.73
2022-07-27T03:10:10.440Z,22.69
2022-07-27T03:12:44.670Z,22.72
2022-07-27T03:15:17.645Z,22.72
2022-07-27T03:17:50.662Z,22.74
2022-07-27T03:20:24.110Z,22.80
2022-07-27T03:22:57.256Z,22.86
2022-07-27T03:25:30.777Z,22.90
2022-07-27T03:28:04.508Z,23.00
2022-07-27T03:30:38.046Z,23.14
2022-07-27T03:33:11.143Z,23.21
2022-07-27T03:35:44.179Z,23.17
2022-07-27T03:38:17.709Z,23.12
2022-07-27T03:40:50.670Z,23.09
2022-07-27T03:43:23.750Z,23.20
2022-07-27T03:45:56.831Z,23.36
2022-07-27T03:48:30.117Z,23.45
2022-07-27T03:51:03.149Z,23.66
2022-07-27T03:53:36.074Z,23.73
2022-07-27T03:56:09.093Z,23.79
2022-07-27T03:58:42.884Z,23.81
2022-07-27T04:01:16.023Z,23.78
2022-07-27T04:03:49.038Z,23.75
2022-07-27T04:06:22.020Z,23.86
2022-07-27T04:08:59.572Z,23.93
2022-07-27T04:11:30.257Z,24.03
2022-07-27T04:14:03.538Z,24.19
2022-07-27T04:16:37.184Z,24.34
2022-07-27T04:19:10.731Z,24.40
2022-07-27T04:21:44.119Z,24.42
2022-07-27T04:24:17.255Z,24.43
2022-07-27T04:26:50.305Z,24.47
2022-07-27T04:29:24.149Z,24.56
2022-07-27T04:31:57.493Z,24.59
2022-07-27T04:34:30.902Z,24.59
2022-07-27T04:37:03.850Z,24.71
2022-07-27T04:39:36.859Z,24.82
2022-07-27T04:42:10.719Z,25.00
2022-07-27T04:44:44.165Z,25.06
2022-07-27T04:47:17.182Z,25.04
2022-07-27T04:49:50.378Z,25.07
2022-07-27T04:52:26.492Z,25.15
2022-07-27T04:54:58.352Z,25.21
2022-07-27T04:57:31.519Z,25.33
2022-07-27T05:00:05.773Z,25.41
2022-07-27T05:02:41.869Z,25.42
2022-07-27T05:05:14.976Z,25.54
2022-07-27T05:07:48.060Z,25.63
2022-07-27T05:10:21.437Z,25.67
2022-07-27T05:12:54.472Z,25.75
2022-07-27T05:15:28.395Z,25.72
2022-07-27T05:18:03.115Z,25.76
2022-07-27T05:20:36.104Z,25.79
2022-07-27T05:23:09.278Z,25.83
2022-07-27T05:25:42.261Z,25.87
2022-07-27T05:28:15.332Z,25.92
2022-07-27T05:30:48.379Z,26.01
2022-07-27T05:33:21.388Z,26.08
2022-07-27T05:35:54.564Z,26.13
2022-07-27T05:38:27.620Z,26.22
2022-07-27T05:41:00.695Z,26.35
2022-07-27T05:43:33.771Z,26.44
2022-07-27T05:46:06.798Z,26.51
2022-07-27T05:48:39.925Z,26.62
2022-07-27T05:51:16.278Z,26.73
2022-07-27T05:53:49.337Z,26.78
2022-07-27T05:56:22.401Z,26.85
2022-07-27T05:58:55.425Z,26.93
2022-07-27T06:01:28.517Z,27.00
2022-07-27T06:04:01.654Z,27.07
2022-07-27T06:06:52.398Z,27.12
2022-07-27T06:09:25.882Z,27.23
2022-07-27T06:11:58.895Z,27.34
2022-07-27T06:14:32.649Z,27.40
2022-07-27T06:17:05.888Z,27.49
2022-07-27T06:19:40.244Z,27.55
2022-07-27T06:22:13.358Z,27.62
2022-07-27T06:24:46.445Z,27.67
2022-07-27T06:27:19.402Z,27.75
2022-07-27T06:29:52.558Z,27.79
2022-07-27T06:32:25.446Z,27.81
2022-07-27T06:35:00.275Z,27.89
2022-07-27T06:37:34.501Z,27.98
2022-07-27T06:40:09.412Z,28.08
2022-07-27T06:42:42.715Z,28.12
2022-07-27T06:45:16.809Z,28.11
2022-07-27T06:47:52.014Z,28.15
2022-07-27T06:50:26.981Z,28.26
2022-07-27T06:53:00.172Z,28.32
2022-07-27T06:55:33.445Z,28.41
2022-07-27T06:58:07.119Z,28.56
2022-07-27T07:00:40.854Z,28.83
2022-07-27T07:03:14.286Z,29.30
2022-07-27T07:05:48.487Z,30.06
2022-07-27T07:08:22.812Z,31.14
2022-07-27T07:10:56.173Z,32.64
2022-07-27T07:13:32.109Z,34.27
2022-07-27T07:16:04.722Z,35.55
2022-07-27T07:18:38.219Z,36.59
2022-07-27T07:21:11.354Z,37.52
2022-07-27T07:23:45.041Z,38.46
2022-07-27T07:26:18.276Z,39.26
2022-07-27T07:28:51.254Z,39.58
2022-07-27T07:31:24.543Z,39.77
2022-07-27T07:33:59.452Z,39.79
2022-07-27T07:36:32.943Z,39.45
2022-07-27T07:39:06.344Z,39.22
2022-07-27T07:41:39.510Z,39.11
2022-07-27T07:44:13.024Z,39.23
2022-07-27T07:46:47.454Z,39.83
2022-07-27T07:49:39.327Z,40.53
2022-07-27T07:51:58.429Z,41.30
2022-07-27T07:54:31.647Z,42.45
2022-07-27T07:57:05.199Z,43.36
2022-07-27T07:59:38.360Z,43.89
2022-07-27T08:02:11.690Z,43.95
2022-07-27T08:04:44.971Z,43.67
2022-07-27T08:07:18.229Z,43.77
2022-07-27T08:09:51.392Z,44.05
2022-07-27T08:12:26.103Z,44.27
2022-07-27T08:14:59.086Z,44.53
2022-07-27T08:17:33.570Z,44.47
2022-07-27T08:20:09.113Z,45.04
2022-07-27T08:22:42.644Z,45.37
2022-07-27T08:25:17.784Z,45.74
2022-07-27T08:27:51.170Z,45.67
2022-07-27T08:30:24.858Z,45.46
2022-07-27T08:33:01.462Z,45.57
2022-07-27T08:35:36.097Z,45.19
2022-07-27T08:38:10.296Z,44.89
2022-07-27T08:40:45.896Z,45.09
2022-07-27T08:43:25.030Z,45.19
2022-07-27T08:46:01.290Z,44.19
2022-07-27T08:48:35.154Z,43.89
2022-07-27T08:51:08.663Z,43.85
2022-07-27T08:53:52.391Z,44.77
2022-07-27T08:56:18.532Z,44.78
2022-07-27T08:58:52.027Z,45.31
2022-07-27T09:01:25.399Z,46.83
2022-07-27T09:03:58.739Z,47.83
2022-07-27T09:09:46.410Z,46.11
2022-07-27T09:12:20.123Z,45.11
2022-07-27T09:14:54.246Z,45.73
2022-07-27T09:17:48.115Z,46.00
2022-07-27T09:20:07.388Z,44.86
2022-07-27T09:22:42.920Z,44.01
2022-07-27T09:25:18.441Z,44.54
2022-07-27T09:27:56.143Z,43.49
2022-07-27T09:30:29.547Z,42.14
2022-07-27T09:33:05.564Z,42.46
2022-07-27T09:35:39.077Z,43.01
2022-07-27T09:38:22.059Z,43.21
2022-07-27T09:41:02.279Z,42.16
2022-07-27T09:46:33.096Z,39.04
2022-07-27T09:49:07.980Z,38.72
2022-07-27T09:52:04.038Z,40.19
2022-07-27T09:54:24.101Z,40.23
2022-07-27T09:57:04.163Z,40.59
2022-07-27T09:59:37.522Z,40.76
2022-07-27T10:02:12.566Z,40.78
2022-07-27T10:04:48.114Z,41.89
2022-07-27T10:07:23.099Z,42.12
2022-07-27T10:09:57.017Z,40.35
2022-07-27T10:12:32.789Z,38.22
2022-07-27T10:15:06.961Z,36.67
2022-07-27T10:17:42.070Z,35.47
2022-07-27T10:20:18.293Z,34.30
2022-07-27T10:22:58.652Z,33.41
2022-07-27T10:25:38.290Z,33.07
2022-07-27T10:28:15.682Z,33.14
2022-07-27T10:30:54.310Z,33.35
2022-07-27T10:33:45.191Z,33.27
2022-07-27T10:36:20.758Z,33.32
2022-07-27T10:38:57.271Z,33.01
2022-07-27T10:41:32.552Z,32.54
2022-07-27T10:44:30.767Z,32.13
2022-07-27T10:47:05.463Z,32.24
2022-07-27T10:49:41.430Z,32.41
2022-07-27T10:52:32.077Z,32.72
2022-07-27T10:55:08.851Z,33.21
2022-07-27T10:57:42.172Z,34.61
2022-07-27T11:00:19.793Z,36.19
2022-07-27T11:02:52.898Z,36.87
2022-07-27T11:05:58.721Z,38.76
2022-07-27T11:10:48.675Z,41.43
2022-07-27T11:13:23.292Z,42.72
2022-07-27T11:16:15.712Z,43.41
2022-07-27T11:18:39.193Z,42.93
2022-07-27T11:21:25.927Z,42.58
2022-07-27T11:23:56.709Z,41.12
2022-07-27T11:26:31.619Z,39.53
2022-07-27T11:29:06.712Z,38.46
2022-07-27T11:31:58.288Z,38.25
2022-07-27T11:34:17.030Z,38.42
2022-07-27T11:36:51.333Z,39.96
2022-07-27T11:42:11.685Z,38.20
2022-07-27T11:44:42.408Z,38.72
2022-07-27T11:47:18.509Z,38.74
2022-07-27T11:49:51.610Z,39.46
2022-07-27T11:52:25.980Z,38.57
2022-07-27T11:54:59.374Z,37.45
2022-07-27T11:57:34.447Z,36.52
2022-07-27T12:00:10.334Z,35.81
2022-07-27T12:02:52.219Z,35.23
2022-07-27T12:05:26.388Z,34.64
2022-07-27T12:07:59.912Z,34.24
2022-07-27T12:10:37.513Z,34.01
2022-07-27T12:13:08.126Z,33.95
2022-07-27T12:15:46.286Z,34.10
2022-07-27T12:18:17.286Z,34.27
2022-07-27T12:20:52.131Z,34.36
2022-07-27T12:23:27.980Z,34.63
2022-07-27T12:26:02.963Z,35.04
2022-07-27T12:28:36.179Z,35.43
2022-07-27T12:31:18.806Z,36.07
2022-07-27T12:34:05.678Z,37.76
2022-07-27T12:36:31.493Z,37.45
2022-07-27T12:39:04.928Z,36.58
2022-07-27T12:41:40.281Z,36.77
2022-07-27T12:44:15.901Z,36.45
2022-07-27T12:46:56.531Z,35.84
2022-07-27T12:49:32.298Z,35.18
2022-07-27T12:52:09.557Z,34.79
2022-07-27T12:54:42.858Z,34.47
2022-07-27T12:57:24.397Z,34.02
2022-07-27T12:59:51.255Z,33.60
2022-07-27T13:02:24.569Z,33.25
2022-07-27T13:04:58.487Z,32.92
2022-07-27T13:07:31.882Z,32.65
2022-07-27T13:10:09.140Z,32.40
2022-07-27T13:12:42.665Z,32.28
2022-07-27T13:15:17.148Z,32.23
2022-07-27T13:17:50.776Z,32.19
2022-07-27T13:20:24.261Z,32.20
2022-07-27T13:22:57.719Z,32.26
2022-07-27T13:25:31.123Z,32.36
2022-07-27T13:28:04.741Z,32.10
2022-07-27T13:30:38.101Z,31.82
2022-07-27T13:33:12.613Z,31.85
2022-07-27T13:35:47.770Z,31.91
2022-07-27T13:38:22.972Z,32.02
2022-07-27T13:40:58.639Z,32.26
2022-07-27T13:43:31.830Z,33.38
2022-07-27T13:46:05.411Z,35.47
2022-07-27T13:48:38.619Z,37.16
2022-07-27T13:51:12.142Z,38.81
2022-07-27T13:53:45.509Z,39.90
2022-07-27T13:56:18.514Z,40.02
2022-07-27T13:58:53.594Z,40.10
2022-07-27T14:01:27.314Z,39.57
2022-07-27T14:04:02.633Z,39.75
2022-07-27T14:06:37.281Z,39.69
2022-07-27T14:09:12.851Z,38.79
2022-07-27T14:11:50.915Z,38.06
2022-07-27T14:14:21.786Z,38.37
2022-07-27T14:16:55.768Z,37.87
2022-07-27T14:19:30.385Z,36.84
2022-07-27T14:22:03.926Z,36.11
2022-07-27T14:24:38.197Z,35.40
2022-07-27T14:27:11.844Z,34.77
2022-07-27T14:29:44.990Z,34.30
2022-07-27T14:32:20.204Z,33.95
2022-07-27T14:34:54.576Z,34.51
2022-07-27T14:37:27.920Z,35.83
2022-07-27T14:40:01.113Z,37.03
2022-07-27T14:42:34.742Z,37.94
2022-07-27T14:45:10.209Z,38.56
2022-07-27T14:47:43.584Z,38.36
2022-07-27T14:50:17.203Z,37.63
2022-07-27T14:52:50.821Z,37.83
2022-07-27T14:55:24.906Z,37.98
2022-07-27T14:58:01.085Z,38.16
2022-07-27T15:00:37.913Z,38.23
2022-07-27T15:03:10.022Z,38.27
2022-07-27T15:05:50.661Z,38.45
2022-07-27T15:08:20.933Z,38.67
2022-07-27T15:10:54.679Z,38.70
2022-07-27T15:13:27.964Z,38.73
2022-07-27T15:16:03.431Z,38.56
2022-07-27T15:18:38.735Z,38.29
2022-07-27T15:21:13.369Z,37.80
2022-07-27T15:23:47.448Z,37.67
2022-07-27T15:26:20.817Z,37.36
2022-07-27T15:28:54.337Z,37.27
2022-07-27T15:31:27.929Z,37.27
2022-07-27T15:34:01.676Z,37.25
2022-07-27T15:36:40.554Z,36.98
2022-07-27T15:39:10.875Z,36.95
2022-07-27T15:41:44.281Z,36.96
2022-07-27T15:44:21.536Z,36.93
2022-07-27T15:46:55.315Z,36.66
2022-07-27T15:49:28.760Z,35.64
2022-07-27T15:52:03.039Z,35.03
2022-07-27T15:54:42.194Z,34.38
2022-07-27T15:57:11.693Z,34.02
2022-07-27T15:59:45.118Z,33.65
2022-07-27T16:02:24.833Z,33.47
2022-07-27T16:04:53.876Z,33.11
2022-07-27T16:07:26.977Z,32.86
2022-07-27T16:10:00.360Z,32.71
2022-07-27T16:12:38.097Z,32.58
2022-07-27T16:15:11.941Z,32.60
2022-07-27T16:17:45.179Z,32.68
2022-07-27T16:20:18.507Z,32.64
2022-07-27T16:22:51.908Z,32.60
2022-07-27T16:25:45.834Z,32.26
2022-07-27T16:28:00.124Z,32.31
2022-07-27T16:30:37.945Z,32.12
2022-07-27T16:33:09.453Z,31.74
2022-07-27T16:35:43.039Z,31.49
2022-07-27T16:38:16.606Z,31.26
2022-07-27T16:40:50.460Z,30.99
2022-07-27T16:43:25.793Z,30.78
2022-07-27T16:46:00.232Z,30.57
2022-07-27T16:48:41.565Z,30.38
2022-07-27T16:51:10.761Z,30.24
2022-07-27T16:53:46.309Z,30.13
2022-07-27T16:56:19.975Z,30.06
2022-07-27T16:58:53.215Z,29.96
2022-07-27T17:01:27.086Z,29.88
2022-07-27T17:04:00.519Z,29.78
2022-07-27T17:06:35.406Z,29.70
2022-07-27T17:09:08.762Z,29.66
2022-07-27T17:11:41.830Z,29.59
2022-07-27T17:14:16.787Z,29.53
2022-07-27T17:16:52.123Z,29.44
2022-07-27T17:19:25.004Z,29.33
2022-07-27T17:21:58.363Z,29.20
2022-07-27T17:24:35.060Z,29.11
2022-07-27T17:27:06.834Z,29.01
2022-07-27T17:29:40.497Z,28.84
2022-07-27T17:32:13.834Z,28.70
2022-07-27T17:34:48.496Z,28.61
2022-07-27T17:37:21.771Z,28.46
2022-07-27T17:39:54.945Z,28.34
2022-07-27T17:42:28.164Z,28.26
2022-07-27T17:45:01.292Z,28.30
2022-07-27T17:47:35.147Z,28.29
2022-07-27T17:50:11.345Z,28.25
2022-07-27T17:52:44.689Z,28.19
2022-07-27T17:55:18.579Z,28.14
2022-07-27T17:57:51.841Z,28.09
2022-07-27T18:00:26.001Z,28.08
2022-07-27T18:02:59.132Z,28.09
2022-07-27T18:05:32.255Z,28.14
2022-07-27T18:08:05.244Z,28.15
2022-07-27T18:10:38.869Z,28.17
2022-07-27T18:13:12.331Z,28.17
2022-07-27T18:15:49.318Z,28.17
2022-07-27T18:18:24.348Z,28.12
2022-07-27T18:20:58.151Z,28.09
2022-07-27T18:23:31.296Z,28.07
2022-07-27T18:26:04.324Z,28.06
2022-07-27T18:28:40.094Z,28.02
2022-07-27T18:31:14.692Z,28.00
2022-07-27T18:33:49.992Z,27.98
2022-07-27T18:36:24.147Z,27.95
2022-07-27T18:38:57.821Z,27.93
2022-07-27T18:41:32.321Z,27.90
2022-07-27T18:44:05.665Z,27.85
2022-07-27T18:46:38.954Z,27.76
2022-07-27T18:49:14.137Z,27.66
2022-07-27T18:51:47.631Z,27.57
2022-07-27T18:54:20.669Z,27.49
2022-07-27T18:56:55.391Z,27.44
2022-07-27T18:59:28.883Z,27.37
2022-07-27T19:02:01.900Z,27.24
2022-07-27T19:04:34.946Z,27.13
2022-07-27T19:07:08.132Z,26.91
2022-07-27T19:09:41.183Z,26.75
2022-07-27T19:12:14.411Z,26.64
2022-07-27T19:14:50.240Z,26.60
2022-07-27T19:17:22.268Z,26.50
2022-07-27T19:19:55.318Z,26.36
2022-07-27T19:22:29.411Z,26.16
2022-07-27T19:25:02.892Z,26.02
2022-07-27T19:27:38.406Z,25.70
2022-07-27T19:30:13.317Z,25.40
2022-07-27T19:32:46.424Z,25.38
2022-07-27T19:35:19.836Z,25.43
2022-07-27T19:37:53.095Z,25.43
2022-07-27T19:40:43.923Z,25.38
2022-07-27T19:43:00.876Z,25.40
2022-07-27T19:45:35.460Z,25.45
2022-07-27T19:48:10.749Z,25.35
2022-07-27T19:50:45.727Z,25.28
2022-07-27T19:53:18.801Z,25.26
2022-07-27T19:55:52.764Z,25.29
2022-07-27T19:58:26.170Z,25.32
2022-07-27T20:00:59.379Z,25.27
2022-07-27T20:03:34.711Z,25.21
2022-07-27T20:06:11.320Z,25.13
2022-07-27T20:08:49.020Z,25.08
2022-07-27T20:11:22.044Z,25.02
2022-07-27T20:13:55.436Z,25.00
2022-07-27T20:16:30.138Z,24.88
2022-07-27T20:19:03.588Z,24.78
2022-07-27T20:21:38.682Z,24.73
2022-07-27T20:24:15.011Z,24.80
2022-07-27T20:26:49.203Z,24.76
2022-07-27T20:29:23.016Z,24.74
2022-07-27T20:31:56.403Z,24.74
2022-07-27T20:34:29.652Z,24.69
2022-07-27T20:37:02.577Z,24.61
2022-07-27T20:39:35.495Z,24.63
2022-07-27T20:42:08.677Z,24.61
2022-07-27T20:44:42.261Z,24.66
2022-07-27T20:47:15.445Z,24.76
2022-07-27T20:49:48.640Z,24.77
2022-07-27T20:52:22.393Z,24.79
2022-07-27T20:54:55.582Z,24.85
2022-07-27T20:57:28.958Z,24.85
2022-07-27T21:00:02.284Z,24.80
2022-07-27T21:02:35.859Z,24.76
2022-07-27T21:05:11.176Z,24.70
2022-07-27T21:07:45.977Z,24.68
2022-07-27T21:10:19.113Z,24.69
2022-07-27T21:12:52.705Z,24.68
2022-07-27T21:15:33.603Z,24.70
2022-07-27T21:18:02.582Z,24.46
2022-07-27T21:20:38.963Z,24.25
2022-07-27T21:23:29.481Z,24.14
2022-07-27T21:26:02.908Z,24.02
2022-07-27T21:28:36.301Z,23.90
2022-07-27T21:31:12.319Z,23.90
2022-07-27T21:33:45.430Z,23.95
2022-07-27T21:36:18.652Z,23.91
2022-07-27T21:38:52.000Z,23.82
2022-07-27T21:41:26.354Z,23.88
2022-07-27T21:43:59.351Z,23.89
2022-07-27T21:46:35.078Z,23.83
2022-07-27T21:49:08.531Z,23.76
2022-07-27T21:51:41.638Z,23.72
2022-07-27T21:54:15.439Z,23.71
2022-07-27T21:56:50.573Z,23.66
2022-07-27T21:59:23.992Z,23.53
2022-07-27T22:01:58.871Z,23.42
2022-07-27T22:04:32.048Z,23.36
2022-07-27T22:07:06.358Z,23.31
2022-07-27T22:09:43.832Z,23.29
2022-07-27T22:12:14.197Z,23.35
2022-07-27T22:14:48.017Z,23.45
2022-07-27T22:17:21.025Z,23.56
2022-07-27T22:19:54.325Z,23.58
2022-07-27T22:22:27.419Z,23.50
2022-07-27T22:25:00.948Z,23.39
2022-07-27T22:27:36.535Z,23.30
2022-07-27T22:30:11.191Z,23.21
2022-07-27T22:32:44.475Z,23.16
2022-07-27T22:35:17.717Z,23.12
2022-07-27T22:37:51.606Z,23.07
2022-07-27T22:40:24.959Z,23.05
2022-07-27T22:43:16.456Z,23.10
2022-07-27T22:45:49.652Z,23.10
2022-07-27T22:48:23.094Z,23.05
2022-07-27T22:50:56.051Z,23.03
2022-07-27T22:53:30.931Z,23.05
2022-07-27T22:56:04.034Z,23.02
2022-07-27T22:58:37.572Z,22.98
2022-07-27T23:01:37.103Z,22.94
2022-07-27T23:03:47.123Z,22.89
2022-07-27T23:06:21.029Z,22.85
2022-07-27T23:08:57.429Z,22.80
2022-07-27T23:11:30.590Z,22.73
2022-07-27T23:14:03.707Z,22.57
2022-07-27T23:16:36.900Z,22.35
2022-07-27T23:19:10.263Z,22.19
2022-07-27T23:21:43.096Z,22.06
2022-07-27T23:24:16.743Z,21.95
2022-07-27T23:26:51.160Z,21.81
2022-07-27T23:29:24.326Z,21.68
2022-07-27T23:31:57.596Z,21.64
2022-07-27T23:34:31.713Z,21.62
2022-07-27T23:37:04.949Z,21.59
2022-07-27T23:39:38.057Z,21.59
2022-07-27T23:42:11.348Z,21.58
2022-07-27T23:44:44.454Z,21.64
2022-07-27T23:47:20.033Z,21.64
2022-07-27T23:49:54.206Z,21.61
2022-07-27T23:52:27.230Z,21.63
2022-07-27T23:55:01.260Z,21.65
2022-07-27T23:57:34.619Z,21.73
